sensor_id;sensor_type;location;lat;lon;timestamp;P1;durP1;ratioP1;P2;durP2;ratioP2
7199;SDS011;3641;49.082;8.200;2022-12-07T00:01:36;16.30;;;9.52;;
7199;SDS011;3641;49.082;8.200;2022-12-07T00:04:04;17.75;;;10.25;;
7199;SDS011;3641;49.082;8.200;2022-12-07T00:06:32;14.73;;;8.43;;
7199;SDS011;3641;49.082;8.200;2022-12-07T00:08:59;13.35;;;8.75;;
7199;SDS011;3641;49.082;8.200;2022-12-07T00:11:26;13.40;;;8.20;;
7199;SDS011;3641;49.082;8.200;2022-12-07T00:13:52;15.65;;;8.85;;
7199;SDS011;3641;49.082;8.200;2022-12-07T00:16:22;13.32;;;8.52;;
7199;SDS011;3641;49.082;8.200;2022-12-07T00:18:49;17.23;;;9.38;;
7199;SDS011;3641;49.082;8.200;2022-12-07T00:21:17;14.15;;;8.82;;
7199;SDS011;3641;49.082;8.200;2022-12-07T00:23:45;14.13;;;8.73;;
7199;SDS011;3641;49.082;8.200;2022-12-07T00:26:14;14.95;;;8.98;;
7199;SDS011;3641;49.082;8.200;2022-12-07T00:28:41;15.73;;;8.65;;
7199;SDS011;3641;49.082;8.200;2022-12-07T00:31:12;13.93;;;8.52;;
7199;SDS011;3641;49.082;8.200;2022-12-07T00:33:40;14.85;;;8.50;;
7199;SDS011;3641;49.082;8.200;2022-12-07T00:36:09;15.27;;;8.68;;
7199;SDS011;3641;49.082;8.200;2022-12-07T00:38:36;14.38;;;8.95;;
7199;SDS011;3641;49.082;8.200;2022-12-07T00:41:05;15.18;;;9.25;;
7199;SDS011;3641;49.082;8.200;2022-12-07T00:43:33;15.13;;;8.98;;
7199;SDS011;3641;49.082;8.200;2022-12-07T00:45:59;14.45;;;9.02;;
7199;SDS011;3641;49.082;8.200;2022-12-07T00:48:26;13.30;;;8.85;;
7199;SDS011;3641;49.082;8.200;2022-12-07T00:50:54;16.33;;;9.38;;
7199;SDS011;3641;49.082;8.200;2022-12-07T00:53:20;14.52;;;8.65;;
7199;SDS011;3641;49.082;8.200;2022-12-07T00:55:48;17.25;;;9.25;;
7199;SDS011;3641;49.082;8.200;2022-12-07T00:58:15;15.55;;;9.02;;
7199;SDS011;3641;49.082;8.200;2022-12-07T01:00:42;14.90;;;8.95;;
7199;SDS011;3641;49.082;8.200;2022-12-07T01:03:09;14.73;;;9.13;;
7199;SDS011;3641;49.082;8.200;2022-12-07T01:05:39;15.73;;;9.38;;
7199;SDS011;3641;49.082;8.200;2022-12-07T01:08:08;14.25;;;8.93;;
7199;SDS011;3641;49.082;8.200;2022-12-07T01:10:34;15.48;;;9.50;;
7199;SDS011;3641;49.082;8.200;2022-12-07T01:13:01;14.27;;;8.23;;
7199;SDS011;3641;49.082;8.200;2022-12-07T01:15:27;15.40;;;9.30;;
7199;SDS011;3641;49.082;8.200;2022-12-07T01:17:54;16.58;;;9.18;;
7199;SDS011;3641;49.082;8.200;2022-12-07T01:20:20;15.30;;;9.30;;
7199;SDS011;3641;49.082;8.200;2022-12-07T01:22:47;14.88;;;9.05;;
7199;SDS011;3641;49.082;8.200;2022-12-07T01:25:15;16.27;;;9.93;;
7199;SDS011;3641;49.082;8.200;2022-12-07T01:27:41;15.30;;;9.02;;
7199;SDS011;3641;49.082;8.200;2022-12-07T01:30:10;16.10;;;9.27;;
7199;SDS011;3641;49.082;8.200;2022-12-07T01:32:38;15.68;;;9.15;;
7199;SDS011;3641;49.082;8.200;2022-12-07T01:35:04;13.45;;;8.10;;
7199;SDS011;3641;49.082;8.200;2022-12-07T01:37:33;13.40;;;8.80;;
7199;SDS011;3641;49.082;8.200;2022-12-07T01:40:00;14.10;;;8.63;;
7199;SDS011;3641;49.082;8.200;2022-12-07T01:42:29;14.25;;;7.93;;
7199;SDS011;3641;49.082;8.200;2022-12-07T01:48:05;13.05;;;8.05;;
7199;SDS011;3641;49.082;8.200;2022-12-07T01:50:33;14.18;;;8.02;;
7199;SDS011;3641;49.082;8.200;2022-12-07T01:53:00;12.18;;;7.65;;
7199;SDS011;3641;49.082;8.200;2022-12-07T01:55:30;16.20;;;7.97;;
7199;SDS011;3641;49.082;8.200;2022-12-07T01:57:58;14.23;;;7.80;;
7199;SDS011;3641;49.082;8.200;2022-12-07T02:00:24;14.07;;;8.07;;
7199;SDS011;3641;49.082;8.200;2022-12-07T02:02:52;14.75;;;7.93;;
7199;SDS011;3641;49.082;8.200;2022-12-07T02:05:21;15.65;;;8.52;;
7199;SDS011;3641;49.082;8.200;2022-12-07T02:07:50;12.50;;;8.02;;
7199;SDS011;3641;49.082;8.200;2022-12-07T02:10:19;14.95;;;7.85;;
7199;SDS011;3641;49.082;8.200;2022-12-07T02:12:48;12.45;;;7.68;;
7199;SDS011;3641;49.082;8.200;2022-12-07T02:15:21;13.52;;;8.18;;
7199;SDS011;3641;49.082;8.200;2022-12-07T02:17:55;12.88;;;7.70;;
7199;SDS011;3641;49.082;8.200;2022-12-07T02:20:28;13.50;;;7.53;;
7199;SDS011;3641;49.082;8.200;2022-12-07T02:23:14;13.90;;;7.88;;
7199;SDS011;3641;49.082;8.200;2022-12-07T02:28:55;12.93;;;7.85;;
7199;SDS011;3641;49.082;8.200;2022-12-07T02:31:36;12.88;;;8.38;;
7199;SDS011;3641;49.082;8.200;2022-12-07T02:34:09;14.10;;;7.63;;
7199;SDS011;3641;49.082;8.200;2022-12-07T02:36:45;15.35;;;7.90;;
7199;SDS011;3641;49.082;8.200;2022-12-07T02:39:17;14.30;;;8.02;;
7199;SDS011;3641;49.082;8.200;2022-12-07T02:41:50;12.65;;;8.02;;
7199;SDS011;3641;49.082;8.200;2022-12-07T02:44:22;14.10;;;7.68;;
7199;SDS011;3641;49.082;8.200;2022-12-07T02:46:52;12.60;;;7.15;;
7199;SDS011;3641;49.082;8.200;2022-12-07T02:49:21;12.52;;;8.02;;
7199;SDS011;3641;49.082;8.200;2022-12-07T02:51:50;12.15;;;7.45;;
7199;SDS011;3641;49.082;8.200;2022-12-07T02:54:19;12.57;;;7.47;;
7199;SDS011;3641;49.082;8.200;2022-12-07T02:56:48;11.05;;;7.43;;
7199;SDS011;3641;49.082;8.200;2022-12-07T02:59:21;14.15;;;7.95;;
7199;SDS011;3641;49.082;8.200;2022-12-07T03:02:02;13.73;;;6.68;;
7199;SDS011;3641;49.082;8.200;2022-12-07T03:04:53;13.52;;;7.32;;
7199;SDS011;3641;49.082;8.200;2022-12-07T03:07:30;12.18;;;7.53;;
7199;SDS011;3641;49.082;8.200;2022-12-07T03:10:07;14.77;;;8.40;;
7199;SDS011;3641;49.082;8.200;2022-12-07T03:12:42;12.95;;;7.35;;
7199;SDS011;3641;49.082;8.200;2022-12-07T03:15:14;11.35;;;7.45;;
7199;SDS011;3641;49.082;8.200;2022-12-07T03:17:44;12.63;;;7.30;;
7199;SDS011;3641;49.082;8.200;2022-12-07T03:20:13;11.77;;;6.80;;
7199;SDS011;3641;49.082;8.200;2022-12-07T03:22:42;12.90;;;7.50;;
7199;SDS011;3641;49.082;8.200;2022-12-07T03:25:11;13.40;;;7.50;;
7199;SDS011;3641;49.082;8.200;2022-12-07T03:27:41;13.70;;;7.72;;
7199;SDS011;3641;49.082;8.200;2022-12-07T03:30:15;12.65;;;7.40;;
7199;SDS011;3641;49.082;8.200;2022-12-07T03:32:45;13.40;;;7.75;;
7199;SDS011;3641;49.082;8.200;2022-12-07T03:35:17;14.25;;;7.72;;
7199;SDS011;3641;49.082;8.200;2022-12-07T03:37:48;16.70;;;8.00;;
7199;SDS011;3641;49.082;8.200;2022-12-07T03:40:20;14.10;;;8.27;;
7199;SDS011;3641;49.082;8.200;2022-12-07T03:42:50;16.33;;;7.78;;
7199;SDS011;3641;49.082;8.200;2022-12-07T03:45:19;14.50;;;8.43;;
7199;SDS011;3641;49.082;8.200;2022-12-07T03:47:53;14.75;;;7.47;;
7199;SDS011;3641;49.082;8.200;2022-12-07T03:50:28;13.82;;;8.43;;
7199;SDS011;3641;49.082;8.200;2022-12-07T03:53:01;14.68;;;8.20;;
7199;SDS011;3641;49.082;8.200;2022-12-07T03:55:35;13.38;;;8.02;;
7199;SDS011;3641;49.082;8.200;2022-12-07T03:58:05;14.93;;;8.57;;
7199;SDS011;3641;49.082;8.200;2022-12-07T04:00:36;12.65;;;8.25;;
7199;SDS011;3641;49.082;8.200;2022-12-07T04:03:03;15.73;;;8.27;;
7199;SDS011;3641;49.082;8.200;2022-12-07T04:05:31;15.30;;;8.98;;
7199;SDS011;3641;49.082;8.200;2022-12-07T04:07:57;13.20;;;7.82;;
7199;SDS011;3641;49.082;8.200;2022-12-07T04:10:24;16.02;;;8.50;;
7199;SDS011;3641;49.082;8.200;2022-12-07T04:12:50;15.07;;;8.25;;
7199;SDS011;3641;49.082;8.200;2022-12-07T04:15:17;12.65;;;7.70;;
7199;SDS011;3641;49.082;8.200;2022-12-07T04:17:45;15.32;;;8.70;;
7199;SDS011;3641;49.082;8.200;2022-12-07T04:20:12;14.68;;;8.65;;
7199;SDS011;3641;49.082;8.200;2022-12-07T04:22:38;16.52;;;8.43;;
7199;SDS011;3641;49.082;8.200;2022-12-07T04:25:05;15.57;;;8.18;;
7199;SDS011;3641;49.082;8.200;2022-12-07T04:27:32;12.88;;;7.78;;
7199;SDS011;3641;49.082;8.200;2022-12-07T04:29:59;11.80;;;7.28;;
7199;SDS011;3641;49.082;8.200;2022-12-07T04:32:25;13.38;;;7.72;;
7199;SDS011;3641;49.082;8.200;2022-12-07T04:34:53;16.02;;;8.65;;
7199;SDS011;3641;49.082;8.200;2022-12-07T04:37:20;15.02;;;9.00;;
7199;SDS011;3641;49.082;8.200;2022-12-07T04:39:46;15.07;;;8.15;;
7199;SDS011;3641;49.082;8.200;2022-12-07T04:42:12;17.17;;;9.70;;
7199;SDS011;3641;49.082;8.200;2022-12-07T04:44:39;15.38;;;9.07;;
7199;SDS011;3641;49.082;8.200;2022-12-07T04:47:05;17.90;;;9.57;;
7199;SDS011;3641;49.082;8.200;2022-12-07T04:49:32;17.77;;;10.13;;
7199;SDS011;3641;49.082;8.200;2022-12-07T04:52:00;15.57;;;9.07;;
7199;SDS011;3641;49.082;8.200;2022-12-07T04:54:27;14.63;;;8.93;;
7199;SDS011;3641;49.082;8.200;2022-12-07T04:56:53;16.17;;;9.48;;
7199;SDS011;3641;49.082;8.200;2022-12-07T04:59:20;17.83;;;10.05;;
7199;SDS011;3641;49.082;8.200;2022-12-07T05:01:46;17.45;;;9.55;;
7199;SDS011;3641;49.082;8.200;2022-12-07T05:04:12;17.67;;;9.60;;
7199;SDS011;3641;49.082;8.200;2022-12-07T05:06:41;15.85;;;9.63;;
7199;SDS011;3641;49.082;8.200;2022-12-07T05:09:08;18.17;;;9.82;;
7199;SDS011;3641;49.082;8.200;2022-12-07T05:11:35;17.85;;;10.23;;
7199;SDS011;3641;49.082;8.200;2022-12-07T05:14:06;19.98;;;10.98;;
7199;SDS011;3641;49.082;8.200;2022-12-07T05:16:34;20.55;;;11.15;;
7199;SDS011;3641;49.082;8.200;2022-12-07T05:19:01;16.92;;;10.07;;
7199;SDS011;3641;49.082;8.200;2022-12-07T05:21:28;20.30;;;10.77;;
7199;SDS011;3641;49.082;8.200;2022-12-07T05:23:55;21.13;;;11.20;;
7199;SDS011;3641;49.082;8.200;2022-12-07T05:26:23;16.73;;;9.88;;
7199;SDS011;3641;49.082;8.200;2022-12-07T05:28:50;18.00;;;10.25;;
7199;SDS011;3641;49.082;8.200;2022-12-07T05:31:17;19.30;;;11.02;;
7199;SDS011;3641;49.082;8.200;2022-12-07T05:33:44;21.30;;;11.10;;
7199;SDS011;3641;49.082;8.200;2022-12-07T05:36:10;20.15;;;11.18;;
7199;SDS011;3641;49.082;8.200;2022-12-07T05:38:37;19.65;;;10.88;;
7199;SDS011;3641;49.082;8.200;2022-12-07T05:41:04;22.55;;;11.73;;
7199;SDS011;3641;49.082;8.200;2022-12-07T05:43:33;21.23;;;11.40;;
7199;SDS011;3641;49.082;8.200;2022-12-07T05:45:59;18.90;;;10.95;;
7199;SDS011;3641;49.082;8.200;2022-12-07T05:48:26;21.02;;;11.30;;
7199;SDS011;3641;49.082;8.200;2022-12-07T05:50:53;19.50;;;11.38;;
7199;SDS011;3641;49.082;8.200;2022-12-07T05:53:19;20.95;;;10.55;;
7199;SDS011;3641;49.082;8.200;2022-12-07T05:55:46;19.40;;;11.20;;
7199;SDS011;3641;49.082;8.200;2022-12-07T05:58:12;22.20;;;11.35;;
7199;SDS011;3641;49.082;8.200;2022-12-07T06:00:58;18.67;;;11.40;;
7199;SDS011;3641;49.082;8.200;2022-12-07T06:03:24;20.33;;;11.40;;
7199;SDS011;3641;49.082;8.200;2022-12-07T06:05:51;20.00;;;10.95;;
7199;SDS011;3641;49.082;8.200;2022-12-07T06:08:18;19.50;;;11.27;;
7199;SDS011;3641;49.082;8.200;2022-12-07T06:10:44;20.60;;;10.45;;
7199;SDS011;3641;49.082;8.200;2022-12-07T06:13:33;19.45;;;10.77;;
7199;SDS011;3641;49.082;8.200;2022-12-07T06:15:59;19.25;;;11.00;;
7199;SDS011;3641;49.082;8.200;2022-12-07T06:18:26;18.77;;;11.00;;
7199;SDS011;3641;49.082;8.200;2022-12-07T06:20:52;18.58;;;10.68;;
7199;SDS011;3641;49.082;8.200;2022-12-07T06:23:19;21.00;;;11.23;;
7199;SDS011;3641;49.082;8.200;2022-12-07T06:25:45;20.60;;;10.98;;
7199;SDS011;3641;49.082;8.200;2022-12-07T06:28:12;20.30;;;11.27;;
7199;SDS011;3641;49.082;8.200;2022-12-07T06:30:38;21.10;;;11.90;;
7199;SDS011;3641;49.082;8.200;2022-12-07T06:33:06;19.80;;;11.38;;
7199;SDS011;3641;49.082;8.200;2022-12-07T06:35:33;18.85;;;10.88;;
7199;SDS011;3641;49.082;8.200;2022-12-07T06:37:59;21.17;;;11.43;;
7199;SDS011;3641;49.082;8.200;2022-12-07T06:40:26;21.27;;;11.48;;
7199;SDS011;3641;49.082;8.200;2022-12-07T06:42:52;21.85;;;12.00;;
7199;SDS011;3641;49.082;8.200;2022-12-07T06:45:19;19.95;;;11.35;;
7199;SDS011;3641;49.082;8.200;2022-12-07T06:47:45;18.70;;;11.10;;
7199;SDS011;3641;49.082;8.200;2022-12-07T06:50:13;20.23;;;11.40;;
7199;SDS011;3641;49.082;8.200;2022-12-07T06:52:40;21.48;;;11.40;;
7199;SDS011;3641;49.082;8.200;2022-12-07T06:55:06;19.60;;;11.15;;
7199;SDS011;3641;49.082;8.200;2022-12-07T06:57:33;20.67;;;11.38;;
7199;SDS011;3641;49.082;8.200;2022-12-07T06:59:59;20.50;;;11.65;;
7199;SDS011;3641;49.082;8.200;2022-12-07T07:02:26;21.15;;;11.93;;
7199;SDS011;3641;49.082;8.200;2022-12-07T07:04:52;21.10;;;12.98;;
7199;SDS011;3641;49.082;8.200;2022-12-07T07:07:20;24.58;;;12.95;;
7199;SDS011;3641;49.082;8.200;2022-12-07T07:09:47;22.55;;;11.45;;
7199;SDS011;3641;49.082;8.200;2022-12-07T07:12:13;22.15;;;12.10;;
7199;SDS011;3641;49.082;8.200;2022-12-07T07:14:39;20.85;;;11.80;;
7199;SDS011;3641;49.082;8.200;2022-12-07T07:17:07;23.17;;;11.75;;
7199;SDS011;3641;49.082;8.200;2022-12-07T07:19:33;23.67;;;12.05;;
7199;SDS011;3641;49.082;8.200;2022-12-07T07:22:00;20.20;;;11.45;;
7199;SDS011;3641;49.082;8.200;2022-12-07T07:24:27;21.75;;;11.98;;
7199;SDS011;3641;49.082;8.200;2022-12-07T07:26:54;23.88;;;12.27;;
7199;SDS011;3641;49.082;8.200;2022-12-07T07:29:21;23.10;;;12.35;;
7199;SDS011;3641;49.082;8.200;2022-12-07T07:31:47;21.17;;;12.18;;
7199;SDS011;3641;49.082;8.200;2022-12-07T07:34:14;21.13;;;11.57;;
7199;SDS011;3641;49.082;8.200;2022-12-07T07:36:40;22.10;;;12.13;;
7199;SDS011;3641;49.082;8.200;2022-12-07T07:39:07;20.02;;;11.38;;
7199;SDS011;3641;49.082;8.200;2022-12-07T07:41:35;19.88;;;11.27;;
7199;SDS011;3641;49.082;8.200;2022-12-07T07:44:01;20.95;;;11.73;;
7199;SDS011;3641;49.082;8.200;2022-12-07T07:46:28;22.83;;;12.52;;
7199;SDS011;3641;49.082;8.200;2022-12-07T07:48:54;25.90;;;12.35;;
7199;SDS011;3641;49.082;8.200;2022-12-07T07:51:21;20.83;;;11.57;;
7199;SDS011;3641;49.082;8.200;2022-12-07T07:53:47;20.00;;;11.32;;
7199;SDS011;3641;49.082;8.200;2022-12-07T07:56:14;19.05;;;11.32;;
7199;SDS011;3641;49.082;8.200;2022-12-07T07:58:41;19.17;;;11.18;;
7199;SDS011;3641;49.082;8.200;2022-12-07T08:01:08;20.00;;;11.35;;
7199;SDS011;3641;49.082;8.200;2022-12-07T08:03:35;24.23;;;11.80;;
7199;SDS011;3641;49.082;8.200;2022-12-07T08:06:02;18.70;;;11.30;;
7199;SDS011;3641;49.082;8.200;2022-12-07T08:08:29;21.25;;;11.27;;
7199;SDS011;3641;49.082;8.200;2022-12-07T08:10:55;23.70;;;12.20;;
7199;SDS011;3641;49.082;8.200;2022-12-07T08:13:25;23.35;;;12.05;;
7199;SDS011;3641;49.082;8.200;2022-12-07T08:15:53;19.42;;;11.30;;
7199;SDS011;3641;49.082;8.200;2022-12-07T08:18:20;19.17;;;10.57;;
7199;SDS011;3641;49.082;8.200;2022-12-07T08:20:46;21.05;;;11.27;;
7199;SDS011;3641;49.082;8.200;2022-12-07T08:23:13;20.17;;;11.40;;
7199;SDS011;3641;49.082;8.200;2022-12-07T08:25:39;19.55;;;10.30;;
7199;SDS011;3641;49.082;8.200;2022-12-07T08:28:06;19.38;;;11.32;;
7199;SDS011;3641;49.082;8.200;2022-12-07T08:30:33;21.42;;;11.48;;
7199;SDS011;3641;49.082;8.200;2022-12-07T08:33:01;17.92;;;10.60;;
7199;SDS011;3641;49.082;8.200;2022-12-07T08:35:27;18.48;;;10.85;;
7199;SDS011;3641;49.082;8.200;2022-12-07T08:37:54;17.73;;;10.75;;
7199;SDS011;3641;49.082;8.200;2022-12-07T08:40:22;20.83;;;11.57;;
7199;SDS011;3641;49.082;8.200;2022-12-07T08:42:48;20.42;;;11.00;;
7199;SDS011;3641;49.082;8.200;2022-12-07T08:45:16;20.85;;;11.38;;
7199;SDS011;3641;49.082;8.200;2022-12-07T08:47:44;22.85;;;12.32;;
7199;SDS011;3641;49.082;8.200;2022-12-07T08:50:15;20.38;;;10.95;;
7199;SDS011;3641;49.082;8.200;2022-12-07T08:52:43;19.25;;;10.20;;
7199;SDS011;3641;49.082;8.200;2022-12-07T08:55:10;20.67;;;10.30;;
7199;SDS011;3641;49.082;8.200;2022-12-07T08:57:38;19.77;;;10.73;;
7199;SDS011;3641;49.082;8.200;2022-12-07T09:00:06;17.55;;;10.25;;
7199;SDS011;3641;49.082;8.200;2022-12-07T09:02:33;19.48;;;11.00;;
7199;SDS011;3641;49.082;8.200;2022-12-07T09:04:59;19.50;;;10.95;;
7199;SDS011;3641;49.082;8.200;2022-12-07T09:07:27;18.67;;;10.00;;
7199;SDS011;3641;49.082;8.200;2022-12-07T09:09:56;17.90;;;10.10;;
7199;SDS011;3641;49.082;8.200;2022-12-07T09:12:22;20.25;;;10.65;;
7199;SDS011;3641;49.082;8.200;2022-12-07T09:14:49;17.50;;;10.10;;
7199;SDS011;3641;49.082;8.200;2022-12-07T09:17:15;19.58;;;10.65;;
7199;SDS011;3641;49.082;8.200;2022-12-07T09:19:42;16.75;;;10.15;;
7199;SDS011;3641;49.082;8.200;2022-12-07T09:22:08;21.02;;;10.38;;
7199;SDS011;3641;49.082;8.200;2022-12-07T09:24:37;19.70;;;10.15;;
7199;SDS011;3641;49.082;8.200;2022-12-07T09:27:03;17.45;;;10.13;;
7199;SDS011;3641;49.082;8.200;2022-12-07T09:29:30;17.52;;;9.40;;
7199;SDS011;3641;49.082;8.200;2022-12-07T09:31:56;20.30;;;10.90;;
7199;SDS011;3641;49.082;8.200;2022-12-07T09:34:23;16.08;;;9.55;;
7199;SDS011;3641;49.082;8.200;2022-12-07T09:36:51;18.70;;;10.65;;
7199;SDS011;3641;49.082;8.200;2022-12-07T09:39:17;18.58;;;10.30;;
7199;SDS011;3641;49.082;8.200;2022-12-07T09:41:45;16.25;;;9.38;;
7199;SDS011;3641;49.082;8.200;2022-12-07T09:44:12;17.83;;;9.75;;
7199;SDS011;3641;49.082;8.200;2022-12-07T09:46:41;18.33;;;10.25;;
7199;SDS011;3641;49.082;8.200;2022-12-07T09:49:10;19.15;;;10.57;;
7199;SDS011;3641;49.082;8.200;2022-12-07T09:51:38;18.10;;;10.57;;
7199;SDS011;3641;49.082;8.200;2022-12-07T09:54:05;17.67;;;10.32;;
7199;SDS011;3641;49.082;8.200;2022-12-07T09:56:31;18.55;;;10.15;;
7199;SDS011;3641;49.082;8.200;2022-12-07T09:59:00;19.85;;;11.30;;
7199;SDS011;3641;49.082;8.200;2022-12-07T10:01:29;19.85;;;11.15;;
7199;SDS011;3641;49.082;8.200;2022-12-07T10:03:59;21.90;;;10.90;;
7199;SDS011;3641;49.082;8.200;2022-12-07T10:06:32;20.45;;;11.13;;
7199;SDS011;3641;49.082;8.200;2022-12-07T10:08:59;18.70;;;10.68;;
7199;SDS011;3641;49.082;8.200;2022-12-07T10:11:25;18.88;;;10.43;;
7199;SDS011;3641;49.082;8.200;2022-12-07T10:13:52;21.08;;;10.55;;
7199;SDS011;3641;49.082;8.200;2022-12-07T10:16:30;20.70;;;11.05;;
7199;SDS011;3641;49.082;8.200;2022-12-07T10:19:16;20.27;;;11.52;;
7199;SDS011;3641;49.082;8.200;2022-12-07T10:21:58;20.63;;;10.85;;
7199;SDS011;3641;49.082;8.200;2022-12-07T10:24:30;18.67;;;10.13;;
7199;SDS011;3641;49.082;8.200;2022-12-07T10:26:57;19.77;;;11.43;;
7199;SDS011;3641;49.082;8.200;2022-12-07T10:29:24;18.85;;;10.80;;
7199;SDS011;3641;49.082;8.200;2022-12-07T10:31:57;23.42;;;11.45;;
7199;SDS011;3641;49.082;8.200;2022-12-07T10:34:26;19.58;;;11.30;;
7199;SDS011;3641;49.082;8.200;2022-12-07T10:36:55;22.77;;;12.40;;
7199;SDS011;3641;49.082;8.200;2022-12-07T10:39:40;21.88;;;11.43;;
7199;SDS011;3641;49.082;8.200;2022-12-07T10:42:15;20.65;;;11.30;;
7199;SDS011;3641;49.082;8.200;2022-12-07T10:44:44;19.38;;;10.85;;
7199;SDS011;3641;49.082;8.200;2022-12-07T10:47:18;18.95;;;10.68;;
7199;SDS011;3641;49.082;8.200;2022-12-07T10:53:03;20.60;;;11.13;;
7199;SDS011;3641;49.082;8.200;2022-12-07T10:55:47;22.13;;;10.73;;
7199;SDS011;3641;49.082;8.200;2022-12-07T10:58:37;22.98;;;11.75;;
7199;SDS011;3641;49.082;8.200;2022-12-07T11:01:18;22.42;;;11.05;;
7199;SDS011;3641;49.082;8.200;2022-12-07T11:03:55;21.63;;;11.80;;
7199;SDS011;3641;49.082;8.200;2022-12-07T11:06:40;21.73;;;11.98;;
7199;SDS011;3641;49.082;8.200;2022-12-07T11:09:25;21.35;;;11.85;;
7199;SDS011;3641;49.082;8.200;2022-12-07T11:12:11;22.58;;;10.82;;
7199;SDS011;3641;49.082;8.200;2022-12-07T11:14:44;22.20;;;12.02;;
7199;SDS011;3641;49.082;8.200;2022-12-07T11:17:18;23.42;;;11.77;;
7199;SDS011;3641;49.082;8.200;2022-12-07T11:19:55;23.55;;;12.18;;
7199;SDS011;3641;49.082;8.200;2022-12-07T11:22:30;20.70;;;11.27;;
7199;SDS011;3641;49.082;8.200;2022-12-07T11:25:14;20.52;;;11.43;;
7199;SDS011;3641;49.082;8.200;2022-12-07T11:27:47;20.73;;;12.10;;
7199;SDS011;3641;49.082;8.200;2022-12-07T11:30:29;25.40;;;13.02;;
7199;SDS011;3641;49.082;8.200;2022-12-07T11:33:10;29.00;;;14.40;;
7199;SDS011;3641;49.082;8.200;2022-12-07T11:35:48;27.23;;;14.02;;
7199;SDS011;3641;49.082;8.200;2022-12-07T11:38:23;24.20;;;13.05;;
7199;SDS011;3641;49.082;8.200;2022-12-07T11:41:03;23.45;;;12.80;;
7199;SDS011;3641;49.082;8.200;2022-12-07T11:43:41;19.80;;;10.77;;
7199;SDS011;3641;49.082;8.200;2022-12-07T11:46:19;21.27;;;12.95;;
7199;SDS011;3641;49.082;8.200;2022-12-07T11:48:50;22.50;;;13.18;;
7199;SDS011;3641;49.082;8.200;2022-12-07T11:51:22;21.45;;;12.00;;
7199;SDS011;3641;49.082;8.200;2022-12-07T11:53:51;21.35;;;11.00;;
7199;SDS011;3641;49.082;8.200;2022-12-07T11:56:23;18.70;;;10.60;;
7199;SDS011;3641;49.082;8.200;2022-12-07T11:58:53;22.90;;;10.80;;
7199;SDS011;3641;49.082;8.200;2022-12-07T12:01:31;22.25;;;11.00;;
7199;SDS011;3641;49.082;8.200;2022-12-07T12:04:06;19.52;;;10.63;;
7199;SDS011;3641;49.082;8.200;2022-12-07T12:06:49;18.50;;;10.48;;
7199;SDS011;3641;49.082;8.200;2022-12-07T12:09:17;22.48;;;11.40;;
7199;SDS011;3641;49.082;8.200;2022-12-07T12:14:43;19.95;;;11.07;;
7199;SDS011;3641;49.082;8.200;2022-12-07T12:17:22;20.92;;;11.15;;
7199;SDS011;3641;49.082;8.200;2022-12-07T12:20:03;18.33;;;10.25;;
7199;SDS011;3641;49.082;8.200;2022-12-07T12:22:42;19.35;;;10.43;;
7199;SDS011;3641;49.082;8.200;2022-12-07T12:25:15;20.77;;;10.90;;
7199;SDS011;3641;49.082;8.200;2022-12-07T12:27:47;19.88;;;10.88;;
7199;SDS011;3641;49.082;8.200;2022-12-07T12:30:32;19.13;;;10.70;;
7199;SDS011;3641;49.082;8.200;2022-12-07T12:33:01;23.38;;;11.48;;
7199;SDS011;3641;49.082;8.200;2022-12-07T12:35:31;20.70;;;10.52;;
7199;SDS011;3641;49.082;8.200;2022-12-07T12:40:55;20.25;;;11.02;;
7199;SDS011;3641;49.082;8.200;2022-12-07T12:43:41;22.88;;;11.25;;
7199;SDS011;3641;49.082;8.200;2022-12-07T12:55:14;20.98;;;10.43;;
7199;SDS011;3641;49.082;8.200;2022-12-07T12:57:46;20.15;;;10.40;;
7199;SDS011;3641;49.082;8.200;2022-12-07T13:00:17;18.25;;;9.35;;
7199;SDS011;3641;49.082;8.200;2022-12-07T13:02:49;18.23;;;10.27;;
7199;SDS011;3641;49.082;8.200;2022-12-07T13:05:18;16.73;;;9.32;;
7199;SDS011;3641;49.082;8.200;2022-12-07T13:07:51;19.55;;;10.52;;
7199;SDS011;3641;49.082;8.200;2022-12-07T13:10:24;17.27;;;10.05;;
7199;SDS011;3641;49.082;8.200;2022-12-07T13:12:59;17.38;;;9.95;;
7199;SDS011;3641;49.082;8.200;2022-12-07T13:15:34;19.67;;;10.27;;
7199;SDS011;3641;49.082;8.200;2022-12-07T13:18:04;19.15;;;9.63;;
7199;SDS011;3641;49.082;8.200;2022-12-07T13:20:47;16.27;;;9.55;;
7199;SDS011;3641;49.082;8.200;2022-12-07T13:23:19;17.17;;;9.50;;
7199;SDS011;3641;49.082;8.200;2022-12-07T13:28:44;21.73;;;11.35;;
7199;SDS011;3641;49.082;8.200;2022-12-07T13:33:59;20.98;;;10.43;;
7199;SDS011;3641;49.082;8.200;2022-12-07T13:36:27;21.73;;;10.98;;
7199;SDS011;3641;49.082;8.200;2022-12-07T13:38:57;21.98;;;10.68;;
7199;SDS011;3641;49.082;8.200;2022-12-07T13:41:27;20.40;;;11.20;;
7199;SDS011;3641;49.082;8.200;2022-12-07T13:43:59;22.25;;;11.30;;
7199;SDS011;3641;49.082;8.200;2022-12-07T13:46:31;19.27;;;10.88;;
7199;SDS011;3641;49.082;8.200;2022-12-07T13:49:15;21.63;;;11.48;;
7199;SDS011;3641;49.082;8.200;2022-12-07T13:51:43;20.70;;;11.23;;
7199;SDS011;3641;49.082;8.200;2022-12-07T13:54:11;17.95;;;10.40;;
7199;SDS011;3641;49.082;8.200;2022-12-07T13:56:39;18.88;;;11.35;;
7199;SDS011;3641;49.082;8.200;2022-12-07T13:59:10;21.33;;;11.38;;
7199;SDS011;3641;49.082;8.200;2022-12-07T14:01:39;20.50;;;11.32;;
7199;SDS011;3641;49.082;8.200;2022-12-07T14:07:15;18.88;;;10.25;;
7199;SDS011;3641;49.082;8.200;2022-12-07T14:09:53;21.92;;;10.75;;
7199;SDS011;3641;49.082;8.200;2022-12-07T14:12:22;19.20;;;10.77;;
7199;SDS011;3641;49.082;8.200;2022-12-07T14:14:49;19.08;;;10.50;;
7199;SDS011;3641;49.082;8.200;2022-12-07T14:17:17;20.05;;;10.63;;
7199;SDS011;3641;49.082;8.200;2022-12-07T14:19:48;20.23;;;10.57;;
7199;SDS011;3641;49.082;8.200;2022-12-07T14:22:21;19.63;;;10.05;;
7199;SDS011;3641;49.082;8.200;2022-12-07T14:24:50;16.60;;;10.02;;
7199;SDS011;3641;49.082;8.200;2022-12-07T14:27:18;21.85;;;11.25;;
7199;SDS011;3641;49.082;8.200;2022-12-07T14:29:46;19.77;;;10.43;;
7199;SDS011;3641;49.082;8.200;2022-12-07T14:32:17;20.05;;;11.20;;
7199;SDS011;3641;49.082;8.200;2022-12-07T14:34:54;20.58;;;11.35;;
7199;SDS011;3641;49.082;8.200;2022-12-07T14:37:24;21.48;;;10.40;;
7199;SDS011;3641;49.082;8.200;2022-12-07T14:39:51;22.40;;;11.45;;
7199;SDS011;3641;49.082;8.200;2022-12-07T14:42:18;20.67;;;10.82;;
7199;SDS011;3641;49.082;8.200;2022-12-07T14:44:47;19.83;;;11.52;;
7199;SDS011;3641;49.082;8.200;2022-12-07T14:47:13;21.25;;;11.63;;
7199;SDS011;3641;49.082;8.200;2022-12-07T14:49:39;20.60;;;11.45;;
7199;SDS011;3641;49.082;8.200;2022-12-07T14:52:09;20.65;;;11.55;;
7199;SDS011;3641;49.082;8.200;2022-12-07T14:54:40;18.13;;;10.13;;
7199;SDS011;3641;49.082;8.200;2022-12-07T14:57:08;22.10;;;12.88;;
7199;SDS011;3641;49.082;8.200;2022-12-07T14:59:34;22.23;;;11.93;;
7199;SDS011;3641;49.082;8.200;2022-12-07T15:02:02;22.60;;;12.27;;
7199;SDS011;3641;49.082;8.200;2022-12-07T15:04:29;22.42;;;11.90;;
7199;SDS011;3641;49.082;8.200;2022-12-07T15:06:55;21.55;;;11.68;;
7199;SDS011;3641;49.082;8.200;2022-12-07T15:09:23;21.45;;;12.05;;
7199;SDS011;3641;49.082;8.200;2022-12-07T15:11:49;24.02;;;12.68;;
7199;SDS011;3641;49.082;8.200;2022-12-07T15:14:16;23.15;;;12.93;;
7199;SDS011;3641;49.082;8.200;2022-12-07T15:16:42;25.88;;;14.02;;
7199;SDS011;3641;49.082;8.200;2022-12-07T15:19:14;22.45;;;12.68;;
7199;SDS011;3641;49.082;8.200;2022-12-07T15:21:42;21.13;;;12.77;;
7199;SDS011;3641;49.082;8.200;2022-12-07T15:24:09;23.15;;;12.48;;
7199;SDS011;3641;49.082;8.200;2022-12-07T15:26:36;26.33;;;12.90;;
7199;SDS011;3641;49.082;8.200;2022-12-07T15:29:03;22.95;;;12.88;;
7199;SDS011;3641;49.082;8.200;2022-12-07T15:31:31;27.73;;;13.85;;
7199;SDS011;3641;49.082;8.200;2022-12-07T15:33:58;22.98;;;13.20;;
7199;SDS011;3641;49.082;8.200;2022-12-07T15:36:27;24.05;;;13.60;;
7199;SDS011;3641;49.082;8.200;2022-12-07T15:38:55;24.92;;;14.32;;
7199;SDS011;3641;49.082;8.200;2022-12-07T15:41:22;24.13;;;13.13;;